PWSweather.com
Personal Weather Stations
Station Observations
PICKERING
North Yorkshire, PickeringGB

North YorkshirePickeringGB

Lat: 54.2494, Lon: -0.7725

Elevation: 192

Station Type: Oregon Scientific WMR100

http://www.yorkshirewalker.co.uk/weather/

High Low Average
Temperature 32.7°F0.4°C 24.6°F-4.1°C 29.6°F-1.3°C
Dew Point 19.4°F-7.0°C 14.0°F-10.0°C 16.1°F-8.8°C
Winds 26.2 mph 42.2 kmh 6.9 mph 11.1 kmh 18.0 mph E29.0 kmh E
Wind Gusts 44.5 mph71.6 kmh 10.5 mph16.9 kmh 26.0 mph41.8 kmh
Humidity 70% 54% 61%
Pressure 30.12 in1020.0 mb 29.74 in1007.1 mb -
Precipitation 0.00 in0.0 mm - -
Hour Temp Dew Point Humidity Winds Wind Gusts Pressure Precip Precip Rate Daily Precip Total
12:00 AM 24.6°F-4.1°C 14.0°F-10.0°C 69% 11.2 mph SE18.0 kmh SE 17.0 mph27.4 kmh 30.12 in1020.0 mb 0.00 in0.0 mm 0.00 in0.0 mm 0.00 in0.0 mm
12:05 AM 25.0°F-3.9°C 14.0°F-10.0°C 68% 11.8 mph ESE19.0 kmh ESE 20.6 mph33.2 kmh 30.12 in1020.0 mb 0.00 in0.0 mm 0.00 in0.0 mm 0.00 in0.0 mm
12:10 AM 24.8°F-4.0°C 14.0°F-10.0°C 68% 12.6 mph ESE20.3 kmh ESE 20.6 mph33.2 kmh 30.12 in1020.0 mb 0.00 in0.0 mm 0.00 in0.0 mm 0.00 in0.0 mm
12:15 AM 24.8°F-4.0°C 14.0°F-10.0°C 68% 9.7 mph E15.6 kmh E 12.8 mph20.6 kmh 30.12 in1020.0 mb 0.00 in0.0 mm 0.00 in0.0 mm 0.00 in0.0 mm
12:20 AM 25.0°F-3.9°C 14.0°F-10.0°C 68% 9.2 mph E14.8 kmh E 12.3 mph19.8 kmh 30.12 in1020.0 mb 0.00 in0.0 mm 0.00 in0.0 mm 0.00 in0.0 mm
12:25 AM 24.8°F-4.0°C 14.0°F-10.0°C 68% 11.0 mph E17.7 kmh E 21.9 mph35.2 kmh 30.12 in1020.0 mb 0.00 in0.0 mm 0.00 in0.0 mm 0.00 in0.0 mm
12:30 AM 25.0°F-3.9°C 14.0°F-10.0°C 68% 11.5 mph ESE18.5 kmh ESE 21.9 mph35.2 kmh 30.12 in1020.0 mb 0.00 in0.0 mm 0.00 in0.0 mm 0.00 in0.0 mm
12:35 AM 25.0°F-3.9°C 14.0°F-10.0°C 67% 9.4 mph ESE15.1 kmh ESE 13.2 mph21.2 kmh 30.12 in1020.0 mb 0.00 in0.0 mm 0.00 in0.0 mm 0.00 in0.0 mm
12:40 AM 25.0°F-3.9°C 14.0°F-10.0°C 67% 8.9 mph E14.3 kmh E 12.1 mph19.5 kmh 30.12 in1020.0 mb 0.00 in0.0 mm 0.00 in0.0 mm 0.00 in0.0 mm
12:45 AM 25.3°F-3.7°C 14.0°F-10.0°C 66% 9.1 mph E14.6 kmh E 13.9 mph22.4 kmh 30.09 in1019.0 mb 0.00 in0.0 mm 0.00 in0.0 mm 0.00 in0.0 mm
12:50 AM 25.0°F-3.9°C 14.0°F-10.0°C 67% 10.7 mph E17.2 kmh E 13.9 mph22.4 kmh 30.09 in1019.0 mb 0.00 in0.0 mm 0.00 in0.0 mm 0.00 in0.0 mm
12:55 AM 25.0°F-3.9°C 14.0°F-10.0°C 68% 11.8 mph E19.0 kmh E 19.0 mph30.6 kmh 30.09 in1019.0 mb 0.00 in0.0 mm 0.00 in0.0 mm 0.00 in0.0 mm
01:00 AM 25.0°F-3.9°C 14.0°F-10.0°C 69% 12.6 mph E20.3 kmh E 19.0 mph30.6 kmh 30.09 in1019.0 mb 0.00 in0.0 mm 0.00 in0.0 mm 0.00 in0.0 mm
01:05 AM 25.0°F-3.9°C 14.0°F-10.0°C 69% 11.3 mph E18.2 kmh E 15.9 mph25.6 kmh 30.09 in1019.0 mb 0.00 in0.0 mm 0.00 in0.0 mm 0.00 in0.0 mm
01:10 AM 25.2°F-3.8°C 14.0°F-10.0°C 68% 11.2 mph E18.0 kmh E 17.2 mph27.7 kmh 30.09 in1019.0 mb 0.00 in0.0 mm 0.00 in0.0 mm 0.00 in0.0 mm
01:15 AM 25.0°F-3.9°C 14.0°F-10.0°C 68% 12.0 mph E19.3 kmh E 17.2 mph27.7 kmh 30.09 in1019.0 mb 0.00 in0.0 mm 0.00 in0.0 mm 0.00 in0.0 mm
01:20 AM 25.2°F-3.8°C 14.0°F-10.0°C 68% 11.4 mph E18.3 kmh E 15.2 mph24.5 kmh 30.09 in1019.0 mb 0.00 in0.0 mm 0.00 in0.0 mm 0.00 in0.0 mm
01:25 AM 25.2°F-3.8°C 14.0°F-10.0°C 67% 11.5 mph E18.5 kmh E 17.0 mph27.4 kmh 30.09 in1019.0 mb 0.00 in0.0 mm 0.00 in0.0 mm 0.00 in0.0 mm
01:30 AM 25.0°F-3.9°C 14.0°F-10.0°C 67% 9.9 mph E15.9 kmh E 17.0 mph27.4 kmh 30.09 in1019.0 mb 0.00 in0.0 mm 0.00 in0.0 mm 0.00 in0.0 mm
01:35 AM 25.2°F-3.8°C 14.0°F-10.0°C 67% 8.4 mph E13.5 kmh E 13.0 mph20.9 kmh 30.09 in1019.0 mb 0.00 in0.0 mm 0.00 in0.0 mm 0.00 in0.0 mm
01:40 AM 25.2°F-3.8°C 14.0°F-10.0°C 67% 9.6 mph E15.4 kmh E 17.2 mph27.7 kmh 30.09 in1019.0 mb 0.00 in0.0 mm 0.00 in0.0 mm 0.00 in0.0 mm
01:45 AM 24.6°F-4.1°C 14.0°F-10.0°C 68% 11.7 mph E18.8 kmh E 17.2 mph27.7 kmh 30.09 in1019.0 mb 0.00 in0.0 mm 0.00 in0.0 mm 0.00 in0.0 mm
01:50 AM 24.8°F-4.0°C 14.0°F-10.0°C 68% 11.0 mph E17.7 kmh E 17.2 mph27.7 kmh 30.09 in1019.0 mb 0.00 in0.0 mm 0.00 in0.0 mm 0.00 in0.0 mm
01:55 AM 24.6°F-4.1°C 14.0°F-10.0°C 69% 10.1 mph ESE16.3 kmh ESE 15.2 mph24.5 kmh 30.09 in1019.0 mb 0.00 in0.0 mm 0.00 in0.0 mm 0.00 in0.0 mm
02:00 AM 24.6°F-4.1°C 14.0°F-10.0°C 69% 11.0 mph E17.7 kmh E 19.5 mph31.4 kmh 30.09 in1019.0 mb 0.00 in0.0 mm 0.00 in0.0 mm 0.00 in0.0 mm
02:05 AM 24.6°F-4.1°C 14.0°F-10.0°C 69% 10.2 mph E16.4 kmh E 19.5 mph31.4 kmh 30.09 in1019.0 mb 0.00 in0.0 mm 0.00 in0.0 mm 0.00 in0.0 mm
02:10 AM 25.0°F-3.9°C 14.0°F-10.0°C 69% 11.8 mph ESE19.0 kmh ESE 17.4 mph28.0 kmh 30.09 in1019.0 mb 0.00 in0.0 mm 0.00 in0.0 mm 0.00 in0.0 mm
02:15 AM 25.2°F-3.8°C 14.0°F-10.0°C 69% 11.6 mph E18.7 kmh E 17.4 mph28.0 kmh 30.07 in1018.3 mb 0.00 in0.0 mm 0.00 in0.0 mm 0.00 in0.0 mm
02:20 AM 25.2°F-3.8°C 14.0°F-10.0°C 69% 10.1 mph E16.3 kmh E 13.2 mph21.2 kmh 30.07 in1018.3 mb 0.00 in0.0 mm 0.00 in0.0 mm 0.00 in0.0 mm
02:25 AM 25.2°F-3.8°C 14.0°F-10.0°C 69% 7.6 mph E12.2 kmh E 13.2 mph21.2 kmh 30.07 in1018.3 mb 0.00 in0.0 mm 0.00 in0.0 mm 0.00 in0.0 mm
02:30 AM 25.5°F-3.6°C 15.8°F-9.0°C 69% 6.9 mph E11.1 kmh E 10.5 mph16.9 kmh 30.07 in1018.3 mb 0.00 in0.0 mm 0.00 in0.0 mm 0.00 in0.0 mm
02:35 AM 25.5°F-3.6°C 15.8°F-9.0°C 69% 12.8 mph E20.6 kmh E 25.3 mph40.7 kmh 30.07 in1018.3 mb 0.00 in0.0 mm 0.00 in0.0 mm 0.00 in0.0 mm
02:40 AM 25.3°F-3.7°C 15.8°F-9.0°C 70% 14.6 mph E23.5 kmh E 25.3 mph40.7 kmh 30.07 in1018.3 mb 0.00 in0.0 mm 0.00 in0.0 mm 0.00 in0.0 mm
02:45 AM 25.5°F-3.6°C 15.8°F-9.0°C 70% 11.3 mph ENE18.2 kmh ENE 15.2 mph24.5 kmh 30.07 in1018.3 mb 0.00 in0.0 mm 0.00 in0.0 mm 0.00 in0.0 mm
02:50 AM 25.7°F-3.5°C 15.8°F-9.0°C 69% 11.2 mph E18.0 kmh E 17.4 mph28.0 kmh 30.07 in1018.3 mb 0.00 in0.0 mm 0.00 in0.0 mm 0.00 in0.0 mm
02:55 AM 25.5°F-3.6°C 15.8°F-9.0°C 69% 11.5 mph ESE18.5 kmh ESE 17.4 mph28.0 kmh 30.07 in1018.3 mb 0.00 in0.0 mm 0.00 in0.0 mm 0.00 in0.0 mm
03:00 AM 25.5°F-3.6°C 15.8°F-9.0°C 69% 12.7 mph ESE20.4 kmh ESE 17.4 mph28.0 kmh 30.07 in1018.3 mb 0.00 in0.0 mm 0.00 in0.0 mm 0.00 in0.0 mm
03:05 AM 25.7°F-3.5°C 15.8°F-9.0°C 69% 14.2 mph E22.9 kmh E 23.5 mph37.8 kmh 30.07 in1018.3 mb 0.00 in0.0 mm 0.00 in0.0 mm 0.00 in0.0 mm
03:10 AM 25.7°F-3.5°C 15.8°F-9.0°C 68% 15.6 mph E25.1 kmh E 23.5 mph37.8 kmh 30.07 in1018.3 mb 0.00 in0.0 mm 0.00 in0.0 mm 0.00 in0.0 mm
03:15 AM 25.7°F-3.5°C 15.8°F-9.0°C 68% 14.1 mph E22.7 kmh E 23.0 mph37.0 kmh 30.07 in1018.3 mb 0.00 in0.0 mm 0.00 in0.0 mm 0.00 in0.0 mm
03:20 AM 25.9°F-3.4°C 15.8°F-9.0°C 67% 15.0 mph E24.1 kmh E 28.0 mph45.1 kmh 30.07 in1018.3 mb 0.00 in0.0 mm 0.00 in0.0 mm 0.00 in0.0 mm
03:25 AM 25.7°F-3.5°C 15.8°F-9.0°C 67% 15.4 mph E24.8 kmh E 28.0 mph45.1 kmh 30.07 in1018.3 mb 0.00 in0.0 mm 0.00 in0.0 mm 0.00 in0.0 mm
03:30 AM 25.7°F-3.5°C 15.8°F-9.0°C 67% 15.6 mph E25.1 kmh E 23.9 mph38.5 kmh 30.07 in1018.3 mb 0.00 in0.0 mm 0.00 in0.0 mm 0.00 in0.0 mm
03:35 AM 25.7°F-3.5°C 15.8°F-9.0°C 67% 18.5 mph E29.8 kmh E 23.9 mph38.5 kmh 30.07 in1018.3 mb 0.00 in0.0 mm 0.00 in0.0 mm 0.00 in0.0 mm
03:40 AM 25.7°F-3.5°C 15.8°F-9.0°C 68% 15.2 mph E24.5 kmh E 23.9 mph38.5 kmh 30.07 in1018.3 mb 0.00 in0.0 mm 0.00 in0.0 mm 0.00 in0.0 mm
03:45 AM 25.5°F-3.6°C 15.8°F-9.0°C 69% 15.0 mph E24.1 kmh E 23.9 mph38.5 kmh 30.04 in1017.3 mb 0.00 in0.0 mm 0.00 in0.0 mm 0.00 in0.0 mm
03:50 AM 25.7°F-3.5°C 15.8°F-9.0°C 69% 15.1 mph ESE24.3 kmh ESE 22.6 mph36.4 kmh 30.04 in1017.3 mb 0.00 in0.0 mm 0.00 in0.0 mm 0.00 in0.0 mm
03:55 AM 25.7°F-3.5°C 15.8°F-9.0°C 68% 13.6 mph E21.9 kmh E 17.4 mph28.0 kmh 30.04 in1017.3 mb 0.00 in0.0 mm 0.00 in0.0 mm 0.00 in0.0 mm
04:00 AM 25.7°F-3.5°C 15.8°F-9.0°C 68% 13.9 mph E22.4 kmh E 17.7 mph28.5 kmh 30.04 in1017.3 mb 0.00 in0.0 mm 0.00 in0.0 mm 0.00 in0.0 mm
04:05 AM 25.9°F-3.4°C 15.8°F-9.0°C 67% 13.7 mph E22.0 kmh E 17.7 mph28.5 kmh 30.04 in1017.3 mb 0.00 in0.0 mm 0.00 in0.0 mm 0.00 in0.0 mm
04:10 AM 26.1°F-3.3°C 14.0°F-10.0°C 66% 10.8 mph E17.4 kmh E 16.8 mph27.0 kmh 30.04 in1017.3 mb 0.00 in0.0 mm 0.00 in0.0 mm 0.00 in0.0 mm
04:15 AM 26.1°F-3.3°C 14.0°F-10.0°C 65% 11.7 mph E18.8 kmh E 18.8 mph30.3 kmh 30.04 in1017.3 mb 0.00 in0.0 mm 0.00 in0.0 mm 0.00 in0.0 mm
04:20 AM 26.2°F-3.2°C 14.0°F-10.0°C 64% 13.9 mph E22.4 kmh E 19.9 mph32.0 kmh 30.04 in1017.3 mb 0.00 in0.0 mm 0.00 in0.0 mm 0.00 in0.0 mm
04:25 AM 26.4°F-3.1°C 14.0°F-10.0°C 63% 14.3 mph E23.0 kmh E 19.9 mph32.0 kmh 30.04 in1017.3 mb 0.00 in0.0 mm 0.00 in0.0 mm 0.00 in0.0 mm
04:30 AM 26.4°F-3.1°C 14.0°F-10.0°C 63% 14.8 mph E23.8 kmh E 19.9 mph32.0 kmh 30.04 in1017.3 mb 0.00 in0.0 mm 0.00 in0.0 mm 0.00 in0.0 mm
04:35 AM 26.4°F-3.1°C 14.0°F-10.0°C 64% 14.6 mph E23.5 kmh E 24.4 mph39.3 kmh 30.04 in1017.3 mb 0.00 in0.0 mm 0.00 in0.0 mm 0.00 in0.0 mm
04:40 AM 26.2°F-3.2°C 15.8°F-9.0°C 65% 13.9 mph E22.4 kmh E 24.4 mph39.3 kmh 30.04 in1017.3 mb 0.00 in0.0 mm 0.00 in0.0 mm 0.00 in0.0 mm
04:45 AM 26.2°F-3.2°C 15.8°F-9.0°C 65% 13.6 mph E21.9 kmh E 17.4 mph28.0 kmh 30.04 in1017.3 mb 0.00 in0.0 mm 0.00 in0.0 mm 0.00 in0.0 mm
04:50 AM 26.1°F-3.3°C 14.0°F-10.0°C 66% 15.1 mph E24.3 kmh E 21.3 mph34.3 kmh 30.04 in1017.3 mb 0.00 in0.0 mm 0.00 in0.0 mm 0.00 in0.0 mm
04:55 AM 26.1°F-3.3°C 15.8°F-9.0°C 67% 14.7 mph E23.7 kmh E 21.3 mph34.3 kmh 30.04 in1017.3 mb 0.00 in0.0 mm 0.00 in0.0 mm 0.00 in0.0 mm
05:00 AM 26.1°F-3.3°C 15.8°F-9.0°C 67% 13.2 mph E21.2 kmh E 21.3 mph34.3 kmh 30.01 in1016.3 mb 0.00 in0.0 mm 0.00 in0.0 mm 0.00 in0.0 mm
05:05 AM 26.1°F-3.3°C 14.0°F-10.0°C 66% 13.7 mph E22.0 kmh E 23.3 mph37.5 kmh 30.01 in1016.3 mb 0.00 in0.0 mm 0.00 in0.0 mm 0.00 in0.0 mm
05:10 AM 26.2°F-3.2°C 15.8°F-9.0°C 65% 15.9 mph ESE25.6 kmh ESE 23.3 mph37.5 kmh 30.01 in1016.3 mb 0.00 in0.0 mm 0.00 in0.0 mm 0.00 in0.0 mm
05:15 AM 26.2°F-3.2°C 15.8°F-9.0°C 65% 15.9 mph ESE25.6 kmh ESE 22.6 mph36.4 kmh 30.01 in1016.3 mb 0.00 in0.0 mm 0.00 in0.0 mm 0.00 in0.0 mm
05:20 AM 26.2°F-3.2°C 14.0°F-10.0°C 64% 14.8 mph ESE23.8 kmh ESE 22.6 mph36.4 kmh 30.01 in1016.3 mb 0.00 in0.0 mm 0.00 in0.0 mm 0.00 in0.0 mm
05:25 AM 26.4°F-3.1°C 14.0°F-10.0°C 64% 12.0 mph ESE19.3 kmh ESE 16.3 mph26.2 kmh 30.01 in1016.3 mb 0.00 in0.0 mm 0.00 in0.0 mm 0.00 in0.0 mm
05:30 AM 26.2°F-3.2°C 14.0°F-10.0°C 64% 13.1 mph E21.1 kmh E 22.1 mph35.6 kmh 30.01 in1016.3 mb 0.00 in0.0 mm 0.00 in0.0 mm 0.00 in0.0 mm
05:35 AM 26.1°F-3.3°C 14.0°F-10.0°C 66% 13.3 mph E21.4 kmh E 22.1 mph35.6 kmh 30.01 in1016.3 mb 0.00 in0.0 mm 0.00 in0.0 mm 0.00 in0.0 mm
05:40 AM 26.1°F-3.3°C 15.8°F-9.0°C 67% 13.1 mph E21.1 kmh E 17.7 mph28.5 kmh 30.01 in1016.3 mb 0.00 in0.0 mm 0.00 in0.0 mm 0.00 in0.0 mm
05:45 AM 26.1°F-3.3°C 15.8°F-9.0°C 67% 13.8 mph E22.2 kmh E 19.5 mph31.4 kmh 30.01 in1016.3 mb 0.00 in0.0 mm 0.00 in0.0 mm 0.00 in0.0 mm
05:50 AM 26.1°F-3.3°C 15.8°F-9.0°C 67% 15.4 mph E24.8 kmh E 22.1 mph35.6 kmh 30.01 in1016.3 mb 0.00 in0.0 mm 0.00 in0.0 mm 0.00 in0.0 mm
05:55 AM 26.1°F-3.3°C 15.8°F-9.0°C 67% 15.4 mph E24.8 kmh E 22.1 mph35.6 kmh 30.01 in1016.3 mb 0.00 in0.0 mm 0.00 in0.0 mm 0.00 in0.0 mm
06:00 AM 26.2°F-3.2°C 15.8°F-9.0°C 67% 14.1 mph E22.7 kmh E 27.1 mph43.6 kmh 30.01 in1016.3 mb 0.00 in0.0 mm 0.00 in0.0 mm 0.00 in0.0 mm
06:05 AM 26.4°F-3.1°C 15.8°F-9.0°C 67% 14.2 mph E22.9 kmh E 27.1 mph43.6 kmh 30.01 in1016.3 mb 0.00 in0.0 mm 0.00 in0.0 mm 0.00 in0.0 mm
06:10 AM 26.4°F-3.1°C 15.8°F-9.0°C 66% 12.9 mph E20.8 kmh E 17.9 mph28.8 kmh 30.01 in1016.3 mb 0.00 in0.0 mm 0.00 in0.0 mm 0.00 in0.0 mm
06:15 AM 26.4°F-3.1°C 15.8°F-9.0°C 66% 14.3 mph E23.0 kmh E 22.6 mph36.4 kmh 29.98 in1015.2 mb 0.00 in0.0 mm 0.00 in0.0 mm 0.00 in0.0 mm
06:20 AM 26.4°F-3.1°C 15.8°F-9.0°C 66% 17.0 mph E27.4 kmh E 23.9 mph38.5 kmh 29.98 in1015.2 mb 0.00 in0.0 mm 0.00 in0.0 mm 0.00 in0.0 mm
06:25 AM 26.6°F-3.0°C 15.8°F-9.0°C 65% 19.4 mph ESE31.2 kmh ESE 28.0 mph45.1 kmh 29.98 in1015.2 mb 0.00 in0.0 mm 0.00 in0.0 mm 0.00 in0.0 mm
06:30 AM 26.6°F-3.0°C 15.8°F-9.0°C 65% 22.1 mph E35.6 kmh E 36.7 mph59.1 kmh 29.98 in1015.2 mb 0.00 in0.0 mm 0.00 in0.0 mm 0.00 in0.0 mm
06:35 AM 26.6°F-3.0°C 15.8°F-9.0°C 65% 20.2 mph E32.5 kmh E 36.7 mph59.1 kmh 29.98 in1015.2 mb 0.00 in0.0 mm 0.00 in0.0 mm 0.00 in0.0 mm
06:40 AM 26.4°F-3.1°C 15.8°F-9.0°C 67% 15.7 mph E25.3 kmh E 25.7 mph41.4 kmh 29.98 in1015.2 mb 0.00 in0.0 mm 0.00 in0.0 mm 0.00 in0.0 mm
06:45 AM 26.4°F-3.1°C 15.8°F-9.0°C 67% 12.5 mph E20.1 kmh E 21.3 mph34.3 kmh 29.98 in1015.2 mb 0.00 in0.0 mm 0.00 in0.0 mm 0.00 in0.0 mm
06:50 AM 26.8°F-2.9°C 15.8°F-9.0°C 66% 13.9 mph E22.4 kmh E 25.1 mph40.4 kmh 29.98 in1015.2 mb 0.00 in0.0 mm 0.00 in0.0 mm 0.00 in0.0 mm
06:55 AM 26.8°F-2.9°C 15.8°F-9.0°C 66% 17.5 mph E28.2 kmh E 25.1 mph40.4 kmh 29.98 in1015.2 mb 0.00 in0.0 mm 0.00 in0.0 mm 0.00 in0.0 mm
07:00 AM 26.8°F-2.9°C 15.8°F-9.0°C 66% 19.1 mph E30.7 kmh E 26.2 mph42.2 kmh 29.95 in1014.2 mb 0.00 in0.0 mm 0.00 in0.0 mm 0.00 in0.0 mm
07:05 AM 26.8°F-2.9°C 15.8°F-9.0°C 66% 17.7 mph E28.5 kmh E 26.2 mph42.2 kmh 29.95 in1014.2 mb 0.00 in0.0 mm 0.00 in0.0 mm 0.00 in0.0 mm
07:10 AM 27.0°F-2.8°C 15.8°F-9.0°C 66% 16.1 mph E25.9 kmh E 23.5 mph37.8 kmh 29.95 in1014.2 mb 0.00 in0.0 mm 0.00 in0.0 mm 0.00 in0.0 mm
07:15 AM 27.0°F-2.8°C 15.8°F-9.0°C 66% 16.6 mph E26.7 kmh E 23.5 mph37.8 kmh 29.95 in1014.2 mb 0.00 in0.0 mm 0.00 in0.0 mm 0.00 in0.0 mm
07:20 AM 27.0°F-2.8°C 15.8°F-9.0°C 67% 15.3 mph E24.6 kmh E 21.3 mph34.3 kmh 29.95 in1014.2 mb 0.00 in0.0 mm 0.00 in0.0 mm 0.00 in0.0 mm
07:25 AM 27.1°F-2.7°C 15.8°F-9.0°C 67% 15.9 mph E25.6 kmh E 27.1 mph43.6 kmh 29.95 in1014.2 mb 0.00 in0.0 mm 0.00 in0.0 mm 0.00 in0.0 mm
07:30 AM 27.3°F-2.6°C 15.8°F-9.0°C 66% 17.8 mph E28.6 kmh E 27.1 mph43.6 kmh 29.95 in1014.2 mb 0.00 in0.0 mm 0.00 in0.0 mm 0.00 in0.0 mm
07:35 AM 27.3°F-2.6°C 15.8°F-9.0°C 66% 16.7 mph ENE26.9 kmh ENE 25.5 mph41.0 kmh 29.95 in1014.2 mb 0.00 in0.0 mm 0.00 in0.0 mm 0.00 in0.0 mm
07:40 AM 27.7°F-2.4°C 15.8°F-9.0°C 65% 18.1 mph E29.1 kmh E 23.5 mph37.8 kmh 29.95 in1014.2 mb 0.00 in0.0 mm 0.00 in0.0 mm 0.00 in0.0 mm
07:45 AM 27.7°F-2.4°C 15.8°F-9.0°C 65% 18.7 mph E30.1 kmh E 23.5 mph37.8 kmh 29.95 in1014.2 mb 0.00 in0.0 mm 0.00 in0.0 mm 0.00 in0.0 mm
07:50 AM 27.7°F-2.4°C 15.8°F-9.0°C 65% 18.0 mph ESE29.0 kmh ESE 29.5 mph47.5 kmh 29.95 in1014.2 mb 0.00 in0.0 mm 0.00 in0.0 mm 0.00 in0.0 mm
07:55 AM 27.7°F-2.4°C 15.8°F-9.0°C 65% 19.2 mph ESE30.9 kmh ESE 32.2 mph51.8 kmh 29.95 in1014.2 mb 0.00 in0.0 mm 0.00 in0.0 mm 0.00 in0.0 mm
08:00 AM 27.9°F-2.3°C 15.8°F-9.0°C 64% 19.2 mph E30.9 kmh E 32.2 mph51.8 kmh 29.95 in1014.2 mb 0.00 in0.0 mm 0.00 in0.0 mm 0.00 in0.0 mm
08:05 AM 28.0°F-2.2°C 15.8°F-9.0°C 64% 19.9 mph E32.0 kmh E 26.2 mph42.2 kmh 29.95 in1014.2 mb 0.00 in0.0 mm 0.00 in0.0 mm 0.00 in0.0 mm
08:10 AM 27.9°F-2.3°C 15.8°F-9.0°C 64% 19.4 mph E31.2 kmh E 26.8 mph43.1 kmh 29.95 in1014.2 mb 0.00 in0.0 mm 0.00 in0.0 mm 0.00 in0.0 mm
08:15 AM 28.0°F-2.2°C 15.8°F-9.0°C 64% 19.1 mph E30.7 kmh E 28.6 mph46.0 kmh 29.95 in1014.2 mb 0.00 in0.0 mm 0.00 in0.0 mm 0.00 in0.0 mm
08:20 AM 28.2°F-2.1°C 15.8°F-9.0°C 64% 18.6 mph E29.9 kmh E 28.6 mph46.0 kmh 29.95 in1014.2 mb 0.00 in0.0 mm 0.00 in0.0 mm 0.00 in0.0 mm
08:25 AM 28.2°F-2.1°C 15.8°F-9.0°C 64% 15.1 mph ESE24.3 kmh ESE 20.4 mph32.8 kmh 29.95 in1014.2 mb 0.00 in0.0 mm 0.00 in0.0 mm 0.00 in0.0 mm
08:30 AM 28.4°F-2.0°C 15.8°F-9.0°C 63% 14.6 mph E23.5 kmh E 23.7 mph38.1 kmh 29.95 in1014.2 mb 0.00 in0.0 mm 0.00 in0.0 mm 0.00 in0.0 mm
08:35 AM 28.6°F-1.9°C 15.8°F-9.0°C 63% 18.0 mph E29.0 kmh E 25.5 mph41.0 kmh 29.95 in1014.2 mb 0.00 in0.0 mm 0.00 in0.0 mm 0.00 in0.0 mm
08:40 AM 28.6°F-1.9°C 15.8°F-9.0°C 62% 19.8 mph E31.9 kmh E 25.5 mph41.0 kmh 29.95 in1014.2 mb 0.00 in0.0 mm 0.00 in0.0 mm 0.00 in0.0 mm
08:45 AM 28.8°F-1.8°C 15.8°F-9.0°C 62% 16.0 mph ESE25.7 kmh ESE 23.3 mph37.5 kmh 29.92 in1013.2 mb 0.00 in0.0 mm 0.00 in0.0 mm 0.00 in0.0 mm
08:50 AM 28.8°F-1.8°C 15.8°F-9.0°C 62% 19.0 mph E30.6 kmh E 39.1 mph62.9 kmh 29.92 in1013.2 mb 0.00 in0.0 mm 0.00 in0.0 mm 0.00 in0.0 mm
08:55 AM 28.9°F-1.7°C 15.8°F-9.0°C 61% 22.8 mph E36.7 kmh E 39.1 mph62.9 kmh 29.92 in1013.2 mb 0.00 in0.0 mm 0.00 in0.0 mm 0.00 in0.0 mm
09:00 AM 29.1°F-1.6°C 15.8°F-9.0°C 60% 26.0 mph E41.8 kmh E 39.1 mph62.9 kmh 29.92 in1013.2 mb 0.00 in0.0 mm 0.00 in0.0 mm 0.00 in0.0 mm
09:05 AM 29.1°F-1.6°C 15.8°F-9.0°C 60% 25.5 mph ESE41.0 kmh ESE 28.4 mph45.7 kmh 29.92 in1013.2 mb 0.00 in0.0 mm 0.00 in0.0 mm 0.00 in0.0 mm
09:10 AM 29.3°F-1.5°C 15.8°F-9.0°C 60% 22.8 mph ESE36.7 kmh ESE 27.3 mph43.9 kmh 29.92 in1013.2 mb 0.00 in0.0 mm 0.00 in0.0 mm 0.00 in0.0 mm
09:15 AM 29.7°F-1.3°C 15.8°F-9.0°C 60% 19.5 mph E31.4 kmh E 26.4 mph42.5 kmh 29.92 in1013.2 mb 0.00 in0.0 mm 0.00 in0.0 mm 0.00 in0.0 mm
09:20 AM 29.7°F-1.3°C 15.8°F-9.0°C 59% 21.9 mph E35.2 kmh E 27.3 mph43.9 kmh 29.92 in1013.2 mb 0.00 in0.0 mm 0.00 in0.0 mm 0.00 in0.0 mm
09:25 AM 29.8°F-1.2°C 15.8°F-9.0°C 59% 21.8 mph ESE35.1 kmh ESE 27.3 mph43.9 kmh 29.92 in1013.2 mb 0.00 in0.0 mm 0.00 in0.0 mm 0.00 in0.0 mm
09:30 AM 29.8°F-1.2°C 15.8°F-9.0°C 58% 20.8 mph E33.5 kmh E 26.4 mph42.5 kmh 29.92 in1013.2 mb 0.00 in0.0 mm 0.00 in0.0 mm 0.00 in0.0 mm
09:35 AM 29.8°F-1.2°C 15.8°F-9.0°C 58% 21.4 mph E34.4 kmh E 27.5 mph44.3 kmh 29.92 in1013.2 mb 0.00 in0.0 mm 0.00 in0.0 mm 0.00 in0.0 mm
09:40 AM 29.8°F-1.2°C 15.8°F-9.0°C 58% 21.7 mph ESE34.9 kmh ESE 29.5 mph47.5 kmh 29.92 in1013.2 mb 0.00 in0.0 mm 0.00 in0.0 mm 0.00 in0.0 mm
09:45 AM 29.8°F-1.2°C 15.8°F-9.0°C 58% 20.9 mph ESE33.6 kmh ESE 32.4 mph52.1 kmh 29.92 in1013.2 mb 0.00 in0.0 mm 0.00 in0.0 mm 0.00 in0.0 mm
09:50 AM 30.0°F-1.1°C 15.8°F-9.0°C 58% 18.8 mph E30.3 kmh E 32.4 mph52.1 kmh 29.92 in1013.2 mb 0.00 in0.0 mm 0.00 in0.0 mm 0.00 in0.0 mm
09:55 AM 30.0°F-1.1°C 15.8°F-9.0°C 58% 18.2 mph E29.3 kmh E 28.6 mph46.0 kmh 29.92 in1013.2 mb 0.00 in0.0 mm 0.00 in0.0 mm 0.00 in0.0 mm
10:00 AM 30.4°F-0.9°C 15.8°F-9.0°C 58% 21.7 mph E34.9 kmh E 35.6 mph57.3 kmh 29.92 in1013.2 mb 0.00 in0.0 mm 0.00 in0.0 mm 0.00 in0.0 mm
10:05 AM 30.6°F-0.8°C 15.8°F-9.0°C 57% 21.8 mph E35.1 kmh E 35.6 mph57.3 kmh 29.92 in1013.2 mb 0.00 in0.0 mm 0.00 in0.0 mm 0.00 in0.0 mm
10:10 AM 30.6°F-0.8°C 15.8°F-9.0°C 57% 23.9 mph E38.5 kmh E 35.1 mph56.5 kmh 29.92 in1013.2 mb 0.00 in0.0 mm 0.00 in0.0 mm 0.00 in0.0 mm
10:15 AM 30.7°F-0.7°C 15.8°F-9.0°C 57% 26.0 mph E41.8 kmh E 35.1 mph56.5 kmh 29.92 in1013.2 mb 0.00 in0.0 mm 0.00 in0.0 mm 0.00 in0.0 mm
10:20 AM 30.9°F-0.6°C 15.8°F-9.0°C 57% 23.3 mph E37.5 kmh E 32.2 mph51.8 kmh 29.92 in1013.2 mb 0.00 in0.0 mm 0.00 in0.0 mm 0.00 in0.0 mm
10:25 AM 31.1°F-0.5°C 15.8°F-9.0°C 57% 18.3 mph E29.5 kmh E 27.7 mph44.6 kmh 29.92 in1013.2 mb 0.00 in0.0 mm 0.00 in0.0 mm 0.00 in0.0 mm
10:30 AM 30.9°F-0.6°C 15.8°F-9.0°C 56% 20.9 mph E33.6 kmh E 33.1 mph53.3 kmh 29.92 in1013.2 mb 0.00 in0.0 mm 0.00 in0.0 mm 0.00 in0.0 mm
10:35 AM 30.7°F-0.7°C 15.8°F-9.0°C 56% 24.6 mph E39.6 kmh E 33.1 mph53.3 kmh 29.92 in1013.2 mb 0.00 in0.0 mm 0.00 in0.0 mm 0.00 in0.0 mm
10:40 AM 30.9°F-0.6°C 15.8°F-9.0°C 56% 21.5 mph E34.6 kmh E 26.4 mph42.5 kmh 29.92 in1013.2 mb 0.00 in0.0 mm 0.00 in0.0 mm 0.00 in0.0 mm
10:45 AM 30.9°F-0.6°C 15.8°F-9.0°C 56% 21.0 mph E33.8 kmh E 26.4 mph42.5 kmh 29.92 in1013.2 mb 0.00 in0.0 mm 0.00 in0.0 mm 0.00 in0.0 mm
10:50 AM 31.1°F-0.5°C 15.8°F-9.0°C 56% 22.5 mph E36.2 kmh E 33.1 mph53.3 kmh 29.92 in1013.2 mb 0.00 in0.0 mm 0.00 in0.0 mm 0.00 in0.0 mm
10:55 AM 31.1°F-0.5°C 15.8°F-9.0°C 56% 22.6 mph E36.4 kmh E 33.1 mph53.3 kmh 29.92 in1013.2 mb 0.00 in0.0 mm 0.00 in0.0 mm 0.00 in0.0 mm
11:00 AM 31.3°F-0.4°C 15.8°F-9.0°C 56% 22.6 mph ESE36.4 kmh ESE 28.6 mph46.0 kmh 29.92 in1013.2 mb 0.00 in0.0 mm 0.00 in0.0 mm 0.00 in0.0 mm
11:05 AM 31.5°F-0.3°C 15.8°F-9.0°C 55% 24.5 mph E39.4 kmh E 32.4 mph52.1 kmh 29.92 in1013.2 mb 0.00 in0.0 mm 0.00 in0.0 mm 0.00 in0.0 mm
11:10 AM 31.6°F-0.2°C 15.8°F-9.0°C 55% 26.2 mph E42.2 kmh E 32.4 mph52.1 kmh 29.92 in1013.2 mb 0.00 in0.0 mm 0.00 in0.0 mm 0.00 in0.0 mm
11:15 AM 31.6°F-0.2°C 15.8°F-9.0°C 55% 23.9 mph E38.5 kmh E 32.2 mph51.8 kmh 29.92 in1013.2 mb 0.00 in0.0 mm 0.00 in0.0 mm 0.00 in0.0 mm
11:20 AM 31.8°F-0.1°C 15.8°F-9.0°C 56% 20.6 mph E33.2 kmh E 25.7 mph41.4 kmh 29.92 in1013.2 mb 0.00 in0.0 mm 0.00 in0.0 mm 0.00 in0.0 mm
11:25 AM 31.8°F-0.1°C 15.8°F-9.0°C 55% 22.0 mph E35.4 kmh E 28.9 mph46.5 kmh 29.92 in1013.2 mb 0.00 in0.0 mm 0.00 in0.0 mm 0.00 in0.0 mm
11:30 AM 32.0°F0.0°C 15.8°F-9.0°C 55% 22.4 mph E36.0 kmh E 28.9 mph46.5 kmh 29.92 in1013.2 mb 0.00 in0.0 mm 0.00 in0.0 mm 0.00 in0.0 mm
11:35 AM 31.6°F-0.2°C 15.8°F-9.0°C 55% 22.3 mph E35.9 kmh E 26.6 mph42.8 kmh 29.92 in1013.2 mb 0.00 in0.0 mm 0.00 in0.0 mm 0.00 in0.0 mm
11:40 AM 31.8°F-0.1°C 15.8°F-9.0°C 55% 22.4 mph E36.0 kmh E 26.6 mph42.8 kmh 29.92 in1013.2 mb 0.00 in0.0 mm 0.00 in0.0 mm 0.00 in0.0 mm
11:45 AM 31.8°F-0.1°C 15.8°F-9.0°C 55% 22.7 mph E36.5 kmh E 26.4 mph42.5 kmh 29.92 in1013.2 mb 0.00 in0.0 mm 0.00 in0.0 mm 0.00 in0.0 mm
11:50 AM 31.6°F-0.2°C 15.8°F-9.0°C 55% 24.0 mph E38.6 kmh E 30.0 mph48.3 kmh 29.92 in1013.2 mb 0.00 in0.0 mm 0.00 in0.0 mm 0.00 in0.0 mm
11:55 AM 31.6°F-0.2°C 15.8°F-9.0°C 55% 24.9 mph E40.1 kmh E 35.3 mph56.8 kmh 29.92 in1013.2 mb 0.00 in0.0 mm 0.00 in0.0 mm 0.00 in0.0 mm
12:00 PM 31.8°F-0.1°C 15.8°F-9.0°C 55% 20.8 mph E33.5 kmh E 35.3 mph56.8 kmh 29.89 in1012.2 mb 0.00 in0.0 mm 0.00 in0.0 mm 0.00 in0.0 mm
12:05 PM 31.8°F-0.1°C 15.8°F-9.0°C 55% 18.9 mph E30.4 kmh E 28.9 mph46.5 kmh 29.89 in1012.2 mb 0.00 in0.0 mm 0.00 in0.0 mm 0.00 in0.0 mm
12:10 PM 32.2°F0.1°C 15.8°F-9.0°C 55% 19.2 mph ESE30.9 kmh ESE 28.9 mph46.5 kmh 29.89 in1012.2 mb 0.00 in0.0 mm 0.00 in0.0 mm 0.00 in0.0 mm
12:15 PM 32.2°F0.1°C 15.8°F-9.0°C 55% 18.7 mph SE30.1 kmh SE 25.7 mph41.4 kmh 29.89 in1012.2 mb 0.00 in0.0 mm 0.00 in0.0 mm 0.00 in0.0 mm
12:20 PM 32.4°F0.2°C 15.8°F-9.0°C 55% 20.5 mph SE33.0 kmh SE 28.4 mph45.7 kmh 29.89 in1012.2 mb 0.00 in0.0 mm 0.00 in0.0 mm 0.00 in0.0 mm
12:25 PM 32.4°F0.2°C 15.8°F-9.0°C 54% 21.0 mph ESE33.8 kmh ESE 29.5 mph47.5 kmh 29.89 in1012.2 mb 0.00 in0.0 mm 0.00 in0.0 mm 0.00 in0.0 mm
12:30 PM 32.4°F0.2°C 15.8°F-9.0°C 54% 21.1 mph E34.0 kmh E 29.5 mph47.5 kmh 29.89 in1012.2 mb 0.00 in0.0 mm 0.00 in0.0 mm 0.00 in0.0 mm
12:35 PM 32.4°F0.2°C 15.8°F-9.0°C 54% 23.6 mph E38.0 kmh E 36.9 mph59.4 kmh 29.89 in1012.2 mb 0.00 in0.0 mm 0.00 in0.0 mm 0.00 in0.0 mm
12:40 PM 32.2°F0.1°C 15.8°F-9.0°C 54% 25.5 mph E41.0 kmh E 44.5 mph71.6 kmh 29.89 in1012.2 mb 0.00 in0.0 mm 0.00 in0.0 mm 0.00 in0.0 mm
12:45 PM 32.2°F0.1°C 15.8°F-9.0°C 54% 22.1 mph E35.6 kmh E 44.5 mph71.6 kmh 29.89 in1012.2 mb 0.00 in0.0 mm 0.00 in0.0 mm 0.00 in0.0 mm
12:50 PM 32.2°F0.1°C 15.8°F-9.0°C 54% 23.9 mph E38.5 kmh E 44.5 mph71.6 kmh 29.89 in1012.2 mb 0.00 in0.0 mm 0.00 in0.0 mm 0.00 in0.0 mm
12:55 PM 32.2°F0.1°C 15.8°F-9.0°C 54% 22.8 mph E36.7 kmh E 35.3 mph56.8 kmh 29.89 in1012.2 mb 0.00 in0.0 mm 0.00 in0.0 mm 0.00 in0.0 mm
01:00 PM 32.4°F0.2°C 15.8°F-9.0°C 54% 23.1 mph E37.2 kmh E 31.1 mph50.1 kmh 29.86 in1011.2 mb 0.00 in0.0 mm 0.00 in0.0 mm 0.00 in0.0 mm
01:05 PM 32.4°F0.2°C 15.8°F-9.0°C 54% 20.0 mph E32.2 kmh E 29.5 mph47.5 kmh 29.86 in1011.2 mb 0.00 in0.0 mm 0.00 in0.0 mm 0.00 in0.0 mm
01:10 PM 32.4°F0.2°C 15.8°F-9.0°C 54% 21.4 mph E34.4 kmh E 25.9 mph41.7 kmh 29.86 in1011.2 mb 0.00 in0.0 mm 0.00 in0.0 mm 0.00 in0.0 mm
01:15 PM 32.4°F0.2°C 15.8°F-9.0°C 54% 23.4 mph E37.7 kmh E 28.9 mph46.5 kmh 29.86 in1011.2 mb 0.00 in0.0 mm 0.00 in0.0 mm 0.00 in0.0 mm
01:20 PM 32.5°F0.3°C 17.6°F-8.0°C 54% 19.2 mph E30.9 kmh E 28.9 mph46.5 kmh 29.86 in1011.2 mb 0.00 in0.0 mm 0.00 in0.0 mm 0.00 in0.0 mm
01:25 PM 32.7°F0.4°C 17.6°F-8.0°C 54% 18.8 mph E30.3 kmh E 26.4 mph42.5 kmh 29.86 in1011.2 mb 0.00 in0.0 mm 0.00 in0.0 mm 0.00 in0.0 mm
01:30 PM 32.4°F0.2°C 15.8°F-9.0°C 54% 21.0 mph E33.8 kmh E 27.5 mph44.3 kmh 29.86 in1011.2 mb 0.00 in0.0 mm 0.00 in0.0 mm 0.00 in0.0 mm
01:35 PM 32.5°F0.3°C 17.6°F-8.0°C 54% 19.7 mph E31.7 kmh E 30.9 mph49.7 kmh 29.86 in1011.2 mb 0.00 in0.0 mm 0.00 in0.0 mm 0.00 in0.0 mm
01:40 PM 32.5°F0.3°C 17.6°F-8.0°C 54% 20.2 mph E32.5 kmh E 31.8 mph51.2 kmh 29.86 in1011.2 mb 0.00 in0.0 mm 0.00 in0.0 mm 0.00 in0.0 mm
01:45 PM 32.4°F0.2°C 15.8°F-9.0°C 54% 22.6 mph E36.4 kmh E 31.8 mph51.2 kmh 29.86 in1011.2 mb 0.00 in0.0 mm 0.00 in0.0 mm 0.00 in0.0 mm
01:50 PM 32.4°F0.2°C 15.8°F-9.0°C 54% 23.2 mph ENE37.3 kmh ENE 31.8 mph51.2 kmh 29.86 in1011.2 mb 0.00 in0.0 mm 0.00 in0.0 mm 0.00 in0.0 mm
01:55 PM 32.5°F0.3°C 17.6°F-8.0°C 54% 20.4 mph E32.8 kmh E 26.4 mph42.5 kmh 29.86 in1011.2 mb 0.00 in0.0 mm 0.00 in0.0 mm 0.00 in0.0 mm
02:00 PM 32.5°F0.3°C 17.6°F-8.0°C 54% 21.7 mph ESE34.9 kmh ESE 28.6 mph46.0 kmh 29.86 in1011.2 mb 0.00 in0.0 mm 0.00 in0.0 mm 0.00 in0.0 mm
02:05 PM 32.5°F0.3°C 17.6°F-8.0°C 54% 21.3 mph ESE34.3 kmh ESE 28.6 mph46.0 kmh 29.86 in1011.2 mb 0.00 in0.0 mm 0.00 in0.0 mm 0.00 in0.0 mm
02:10 PM 32.5°F0.3°C 17.6°F-8.0°C 54% 18.0 mph ESE29.0 kmh ESE 28.6 mph46.0 kmh 29.86 in1011.2 mb 0.00 in0.0 mm 0.00 in0.0 mm 0.00 in0.0 mm
02:15 PM 32.4°F0.2°C 15.8°F-9.0°C 54% 18.6 mph E29.9 kmh E 27.5 mph44.3 kmh 29.86 in1011.2 mb 0.00 in0.0 mm 0.00 in0.0 mm 0.00 in0.0 mm
02:20 PM 32.5°F0.3°C 17.6°F-8.0°C 54% 21.6 mph E34.8 kmh E 30.2 mph48.6 kmh 29.86 in1011.2 mb 0.00 in0.0 mm 0.00 in0.0 mm 0.00 in0.0 mm
02:25 PM 32.4°F0.2°C 15.8°F-9.0°C 54% 22.1 mph E35.6 kmh E 30.2 mph48.6 kmh 29.86 in1011.2 mb 0.00 in0.0 mm 0.00 in0.0 mm 0.00 in0.0 mm
02:30 PM 32.4°F0.2°C 15.8°F-9.0°C 54% 23.9 mph E38.5 kmh E 31.8 mph51.2 kmh 29.86 in1011.2 mb 0.00 in0.0 mm 0.00 in0.0 mm 0.00 in0.0 mm
02:35 PM 32.4°F0.2°C 15.8°F-9.0°C 54% 22.7 mph E36.5 kmh E 31.8 mph51.2 kmh 29.86 in1011.2 mb 0.00 in0.0 mm 0.00 in0.0 mm 0.00 in0.0 mm
02:40 PM 32.5°F0.3°C 17.6°F-8.0°C 54% 19.5 mph E31.4 kmh E 28.4 mph45.7 kmh 29.86 in1011.2 mb 0.00 in0.0 mm 0.00 in0.0 mm 0.00 in0.0 mm
02:45 PM 32.7°F0.4°C 17.6°F-8.0°C 54% 20.9 mph E33.6 kmh E 29.8 mph48.0 kmh 29.83 in1010.2 mb 0.00 in0.0 mm 0.00 in0.0 mm 0.00 in0.0 mm
02:50 PM 32.5°F0.3°C 17.6°F-8.0°C 54% 24.1 mph E38.8 kmh E 32.9 mph52.9 kmh 29.83 in1010.2 mb 0.00 in0.0 mm 0.00 in0.0 mm 0.00 in0.0 mm
02:55 PM 32.7°F0.4°C 17.6°F-8.0°C 54% 24.4 mph E39.3 kmh E 32.9 mph52.9 kmh 29.83 in1010.2 mb 0.00 in0.0 mm 0.00 in0.0 mm 0.00 in0.0 mm
03:00 PM 32.5°F0.3°C 17.6°F-8.0°C 54% 22.0 mph E35.4 kmh E 31.1 mph50.1 kmh 29.83 in1010.2 mb 0.00 in0.0 mm 0.00 in0.0 mm 0.00 in0.0 mm
03:05 PM 32.4°F0.2°C 15.8°F-9.0°C 55% 16.0 mph ENE25.7 kmh ENE 26.6 mph42.8 kmh 29.83 in1010.2 mb 0.00 in0.0 mm 0.00 in0.0 mm 0.00 in0.0 mm
03:10 PM 32.5°F0.3°C 17.6°F-8.0°C 55% 15.0 mph E24.1 kmh E 21.0 mph33.8 kmh 29.83 in1010.2 mb 0.00 in0.0 mm 0.00 in0.0 mm 0.00 in0.0 mm
03:15 PM 32.4°F0.2°C 15.8°F-9.0°C 55% 21.2 mph E34.1 kmh E 30.0 mph48.3 kmh 29.83 in1010.2 mb 0.00 in0.0 mm 0.00 in0.0 mm 0.00 in0.0 mm
03:20 PM 32.4°F0.2°C 15.8°F-9.0°C 56% 19.4 mph E31.2 kmh E 30.0 mph48.3 kmh 29.83 in1010.2 mb 0.00 in0.0 mm 0.00 in0.0 mm 0.00 in0.0 mm
03:25 PM 32.4°F0.2°C 15.8°F-9.0°C 55% 15.3 mph E24.6 kmh E 24.2 mph38.9 kmh 29.83 in1010.2 mb 0.00 in0.0 mm 0.00 in0.0 mm 0.00 in0.0 mm
03:30 PM 32.4°F0.2°C 15.8°F-9.0°C 55% 18.4 mph E29.6 kmh E 30.6 mph49.2 kmh 29.80 in1009.1 mb 0.00 in0.0 mm 0.00 in0.0 mm 0.00 in0.0 mm
03:35 PM 32.4°F0.2°C 15.8°F-9.0°C 55% 21.8 mph E35.1 kmh E 30.6 mph49.2 kmh 29.80 in1009.1 mb 0.00 in0.0 mm 0.00 in0.0 mm 0.00 in0.0 mm
03:40 PM 32.2°F0.1°C 15.8°F-9.0°C 56% 19.5 mph E31.4 kmh E 26.4 mph42.5 kmh 29.80 in1009.1 mb 0.00 in0.0 mm 0.00 in0.0 mm 0.00 in0.0 mm
03:45 PM 32.0°F0.0°C 15.8°F-9.0°C 56% 18.7 mph E30.1 kmh E 35.1 mph56.5 kmh 29.80 in1009.1 mb 0.00 in0.0 mm 0.00 in0.0 mm 0.00 in0.0 mm
03:50 PM 32.0°F0.0°C 15.8°F-9.0°C 56% 21.2 mph E34.1 kmh E 35.1 mph56.5 kmh 29.80 in1009.1 mb 0.00 in0.0 mm 0.00 in0.0 mm 0.00 in0.0 mm
03:55 PM 32.0°F0.0°C 15.8°F-9.0°C 55% 21.1 mph E34.0 kmh E 26.2 mph42.2 kmh 29.80 in1009.1 mb 0.00 in0.0 mm 0.00 in0.0 mm 0.00 in0.0 mm
04:00 PM 32.0°F0.0°C 15.8°F-9.0°C 56% 20.6 mph E33.2 kmh E 26.2 mph42.2 kmh 29.80 in1009.1 mb 0.00 in0.0 mm 0.00 in0.0 mm 0.00 in0.0 mm
04:05 PM 31.8°F-0.1°C 15.8°F-9.0°C 56% 18.4 mph E29.6 kmh E 23.3 mph37.5 kmh 29.80 in1009.1 mb 0.00 in0.0 mm 0.00 in0.0 mm 0.00 in0.0 mm
04:10 PM 31.8°F-0.1°C 15.8°F-9.0°C 55% 18.4 mph E29.6 kmh E 23.0 mph37.0 kmh 29.80 in1009.1 mb 0.00 in0.0 mm 0.00 in0.0 mm 0.00 in0.0 mm
04:15 PM 31.8°F-0.1°C 15.8°F-9.0°C 55% 16.8 mph E27.0 kmh E 23.0 mph37.0 kmh 29.80 in1009.1 mb 0.00 in0.0 mm 0.00 in0.0 mm 0.00 in0.0 mm
04:20 PM 31.6°F-0.2°C 15.8°F-9.0°C 56% 17.3 mph E27.8 kmh E 23.7 mph38.1 kmh 29.80 in1009.1 mb 0.00 in0.0 mm 0.00 in0.0 mm 0.00 in0.0 mm
04:25 PM 31.6°F-0.2°C 15.8°F-9.0°C 56% 20.0 mph E32.2 kmh E 25.3 mph40.7 kmh 29.80 in1009.1 mb 0.00 in0.0 mm 0.00 in0.0 mm 0.00 in0.0 mm
04:30 PM 31.6°F-0.2°C 15.8°F-9.0°C 56% 19.0 mph E30.6 kmh E 28.0 mph45.1 kmh 29.80 in1009.1 mb 0.00 in0.0 mm 0.00 in0.0 mm 0.00 in0.0 mm
04:35 PM 31.5°F-0.3°C 15.8°F-9.0°C 56% 18.1 mph E29.1 kmh E 34.2 mph55.0 kmh 29.80 in1009.1 mb 0.00 in0.0 mm 0.00 in0.0 mm 0.00 in0.0 mm
04:40 PM 31.5°F-0.3°C 15.8°F-9.0°C 56% 18.7 mph E30.1 kmh E 34.2 mph55.0 kmh 29.80 in1009.1 mb 0.00 in0.0 mm 0.00 in0.0 mm 0.00 in0.0 mm
04:45 PM 31.5°F-0.3°C 15.8°F-9.0°C 56% 19.4 mph ENE31.2 kmh ENE 28.6 mph46.0 kmh 29.80 in1009.1 mb 0.00 in0.0 mm 0.00 in0.0 mm 0.00 in0.0 mm
04:50 PM 31.3°F-0.4°C 15.8°F-9.0°C 57% 18.3 mph E29.5 kmh E 28.6 mph46.0 kmh 29.80 in1009.1 mb 0.00 in0.0 mm 0.00 in0.0 mm 0.00 in0.0 mm
04:55 PM 31.3°F-0.4°C 15.8°F-9.0°C 57% 17.5 mph E28.2 kmh E 25.9 mph41.7 kmh 29.80 in1009.1 mb 0.00 in0.0 mm 0.00 in0.0 mm 0.00 in0.0 mm
05:00 PM 31.5°F-0.3°C 15.8°F-9.0°C 57% 18.5 mph E29.8 kmh E 22.8 mph36.7 kmh 29.80 in1009.1 mb 0.00 in0.0 mm 0.00 in0.0 mm 0.00 in0.0 mm
05:05 PM 31.3°F-0.4°C 15.8°F-9.0°C 57% 18.8 mph E30.3 kmh E 27.1 mph43.6 kmh 29.80 in1009.1 mb 0.00 in0.0 mm 0.00 in0.0 mm 0.00 in0.0 mm
05:10 PM 31.3°F-0.4°C 15.8°F-9.0°C 57% 19.6 mph E31.5 kmh E 27.1 mph43.6 kmh 29.80 in1009.1 mb 0.00 in0.0 mm 0.00 in0.0 mm 0.00 in0.0 mm
05:15 PM 31.3°F-0.4°C 15.8°F-9.0°C 57% 21.9 mph E35.2 kmh E 37.1 mph59.7 kmh 29.80 in1009.1 mb 0.00 in0.0 mm 0.00 in0.0 mm 0.00 in0.0 mm
05:20 PM 31.1°F-0.5°C 15.8°F-9.0°C 56% 20.4 mph E32.8 kmh E 37.1 mph59.7 kmh 29.80 in1009.1 mb 0.00 in0.0 mm 0.00 in0.0 mm 0.00 in0.0 mm
05:25 PM 31.1°F-0.5°C 15.8°F-9.0°C 57% 19.2 mph E30.9 kmh E 30.0 mph48.3 kmh 29.80 in1009.1 mb 0.00 in0.0 mm 0.00 in0.0 mm 0.00 in0.0 mm
05:30 PM 31.1°F-0.5°C 15.8°F-9.0°C 57% 22.1 mph E35.6 kmh E 30.6 mph49.2 kmh 29.80 in1009.1 mb 0.00 in0.0 mm 0.00 in0.0 mm 0.00 in0.0 mm
05:35 PM 31.1°F-0.5°C 15.8°F-9.0°C 56% 20.0 mph E32.2 kmh E 30.6 mph49.2 kmh 29.80 in1009.1 mb 0.00 in0.0 mm 0.00 in0.0 mm 0.00 in0.0 mm
05:40 PM 31.1°F-0.5°C 15.8°F-9.0°C 56% 20.1 mph E32.3 kmh E 28.6 mph46.0 kmh 29.80 in1009.1 mb 0.00 in0.0 mm 0.00 in0.0 mm 0.00 in0.0 mm
05:45 PM 31.1°F-0.5°C 15.8°F-9.0°C 57% 18.9 mph E30.4 kmh E 27.3 mph43.9 kmh 29.80 in1009.1 mb 0.00 in0.0 mm 0.00 in0.0 mm 0.00 in0.0 mm
05:50 PM 31.1°F-0.5°C 15.8°F-9.0°C 57% 20.8 mph E33.5 kmh E 29.3 mph47.2 kmh 29.80 in1009.1 mb 0.00 in0.0 mm 0.00 in0.0 mm 0.00 in0.0 mm
05:55 PM 31.1°F-0.5°C 15.8°F-9.0°C 57% 22.4 mph E36.0 kmh E 29.3 mph47.2 kmh 29.80 in1009.1 mb 0.00 in0.0 mm 0.00 in0.0 mm 0.00 in0.0 mm
06:00 PM 31.1°F-0.5°C 15.8°F-9.0°C 57% 18.7 mph E30.1 kmh E 22.6 mph36.4 kmh 29.80 in1009.1 mb 0.00 in0.0 mm 0.00 in0.0 mm 0.00 in0.0 mm
06:05 PM 31.1°F-0.5°C 15.8°F-9.0°C 57% 18.4 mph E29.6 kmh E 23.5 mph37.8 kmh 29.80 in1009.1 mb 0.00 in0.0 mm 0.00 in0.0 mm 0.00 in0.0 mm
06:10 PM 31.1°F-0.5°C 15.8°F-9.0°C 57% 20.8 mph E33.5 kmh E 30.6 mph49.2 kmh 29.80 in1009.1 mb 0.00 in0.0 mm 0.00 in0.0 mm 0.00 in0.0 mm
06:15 PM 31.1°F-0.5°C 15.8°F-9.0°C 57% 21.3 mph E34.3 kmh E 30.6 mph49.2 kmh 29.80 in1009.1 mb 0.00 in0.0 mm 0.00 in0.0 mm 0.00 in0.0 mm
06:20 PM 31.1°F-0.5°C 15.8°F-9.0°C 57% 19.2 mph E30.9 kmh E 27.1 mph43.6 kmh 29.80 in1009.1 mb 0.00 in0.0 mm 0.00 in0.0 mm 0.00 in0.0 mm
06:25 PM 31.1°F-0.5°C 15.8°F-9.0°C 57% 18.4 mph E29.6 kmh E 27.1 mph43.6 kmh 29.80 in1009.1 mb 0.00 in0.0 mm 0.00 in0.0 mm 0.00 in0.0 mm
06:30 PM 31.1°F-0.5°C 15.8°F-9.0°C 57% 19.9 mph E32.0 kmh E 28.9 mph46.5 kmh 29.77 in1008.1 mb 0.00 in0.0 mm 0.00 in0.0 mm 0.00 in0.0 mm
06:35 PM 31.1°F-0.5°C 15.8°F-9.0°C 57% 20.9 mph E33.6 kmh E 28.9 mph46.5 kmh 29.77 in1008.1 mb 0.00 in0.0 mm 0.00 in0.0 mm 0.00 in0.0 mm
06:40 PM 31.1°F-0.5°C 15.8°F-9.0°C 57% 17.9 mph E28.8 kmh E 25.5 mph41.0 kmh 29.77 in1008.1 mb 0.00 in0.0 mm 0.00 in0.0 mm 0.00 in0.0 mm
06:45 PM 31.1°F-0.5°C 15.8°F-9.0°C 57% 17.1 mph E27.5 kmh E 25.3 mph40.7 kmh 29.77 in1008.1 mb 0.00 in0.0 mm 0.00 in0.0 mm 0.00 in0.0 mm
06:50 PM 31.1°F-0.5°C 15.8°F-9.0°C 57% 20.2 mph E32.5 kmh E 29.3 mph47.2 kmh 29.77 in1008.1 mb 0.00 in0.0 mm 0.00 in0.0 mm 0.00 in0.0 mm
06:55 PM 31.1°F-0.5°C 15.8°F-9.0°C 57% 21.8 mph E35.1 kmh E 29.3 mph47.2 kmh 29.77 in1008.1 mb 0.00 in0.0 mm 0.00 in0.0 mm 0.00 in0.0 mm
07:00 PM 31.1°F-0.5°C 15.8°F-9.0°C 57% 20.7 mph E33.3 kmh E 28.0 mph45.1 kmh 29.77 in1008.1 mb 0.00 in0.0 mm 0.00 in0.0 mm 0.00 in0.0 mm
07:05 PM 31.3°F-0.4°C 15.8°F-9.0°C 58% 19.9 mph E32.0 kmh E 24.4 mph39.3 kmh 29.77 in1008.1 mb 0.00 in0.0 mm 0.00 in0.0 mm 0.00 in0.0 mm
07:10 PM 31.3°F-0.4°C 15.8°F-9.0°C 58% 18.3 mph ENE29.5 kmh ENE 23.7 mph38.1 kmh 29.77 in1008.1 mb 0.00 in0.0 mm 0.00 in0.0 mm 0.00 in0.0 mm
07:15 PM 31.3°F-0.4°C 15.8°F-9.0°C 58% 13.2 mph E21.2 kmh E 22.4 mph36.0 kmh 29.80 in1009.1 mb 0.00 in0.0 mm 0.00 in0.0 mm 0.00 in0.0 mm
07:20 PM 31.3°F-0.4°C 15.8°F-9.0°C 58% 11.0 mph E17.7 kmh E 16.6 mph26.7 kmh 29.80 in1009.1 mb 0.00 in0.0 mm 0.00 in0.0 mm 0.00 in0.0 mm
07:25 PM 31.3°F-0.4°C 15.8°F-9.0°C 58% 14.4 mph E23.2 kmh E 24.2 mph38.9 kmh 29.80 in1009.1 mb 0.00 in0.0 mm 0.00 in0.0 mm 0.00 in0.0 mm
07:30 PM 31.5°F-0.3°C 15.8°F-9.0°C 58% 18.3 mph E29.5 kmh E 29.3 mph47.2 kmh 29.77 in1008.1 mb 0.00 in0.0 mm 0.00 in0.0 mm 0.00 in0.0 mm
07:35 PM 31.5°F-0.3°C 15.8°F-9.0°C 58% 18.2 mph E29.3 kmh E 29.3 mph47.2 kmh 29.77 in1008.1 mb 0.00 in0.0 mm 0.00 in0.0 mm 0.00 in0.0 mm
07:40 PM 31.5°F-0.3°C 15.8°F-9.0°C 58% 17.0 mph E27.4 kmh E 28.6 mph46.0 kmh 29.77 in1008.1 mb 0.00 in0.0 mm 0.00 in0.0 mm 0.00 in0.0 mm
07:45 PM 31.5°F-0.3°C 15.8°F-9.0°C 58% 18.0 mph E29.0 kmh E 28.6 mph46.0 kmh 29.77 in1008.1 mb 0.00 in0.0 mm 0.00 in0.0 mm 0.00 in0.0 mm
07:50 PM 31.5°F-0.3°C 15.8°F-9.0°C 58% 18.6 mph E29.9 kmh E 29.1 mph46.8 kmh 29.77 in1008.1 mb 0.00 in0.0 mm 0.00 in0.0 mm 0.00 in0.0 mm
07:55 PM 31.5°F-0.3°C 15.8°F-9.0°C 58% 19.0 mph E30.6 kmh E 29.1 mph46.8 kmh 29.77 in1008.1 mb 0.00 in0.0 mm 0.00 in0.0 mm 0.00 in0.0 mm
08:00 PM 31.6°F-0.2°C 17.6°F-8.0°C 58% 18.5 mph ESE29.8 kmh ESE 25.7 mph41.4 kmh 29.77 in1008.1 mb 0.00 in0.0 mm 0.00 in0.0 mm 0.00 in0.0 mm
08:05 PM 31.6°F-0.2°C 17.6°F-8.0°C 58% 18.7 mph E30.1 kmh E 25.7 mph41.4 kmh 29.77 in1008.1 mb 0.00 in0.0 mm 0.00 in0.0 mm 0.00 in0.0 mm
08:10 PM 31.6°F-0.2°C 17.6°F-8.0°C 58% 17.0 mph E27.4 kmh E 27.5 mph44.3 kmh 29.77 in1008.1 mb 0.00 in0.0 mm 0.00 in0.0 mm 0.00 in0.0 mm
08:15 PM 31.5°F-0.3°C 15.8°F-9.0°C 58% 18.0 mph E29.0 kmh E 27.5 mph44.3 kmh 29.77 in1008.1 mb 0.00 in0.0 mm 0.00 in0.0 mm 0.00 in0.0 mm
08:20 PM 31.6°F-0.2°C 17.6°F-8.0°C 58% 18.8 mph E30.3 kmh E 27.1 mph43.6 kmh 29.77 in1008.1 mb 0.00 in0.0 mm 0.00 in0.0 mm 0.00 in0.0 mm
08:25 PM 31.6°F-0.2°C 17.6°F-8.0°C 58% 18.7 mph E30.1 kmh E 24.2 mph38.9 kmh 29.77 in1008.1 mb 0.00 in0.0 mm 0.00 in0.0 mm 0.00 in0.0 mm
08:30 PM 31.6°F-0.2°C 17.6°F-8.0°C 58% 18.5 mph E29.8 kmh E 24.2 mph38.9 kmh 29.77 in1008.1 mb 0.00 in0.0 mm 0.00 in0.0 mm 0.00 in0.0 mm
08:35 PM 31.8°F-0.1°C 17.6°F-8.0°C 59% 19.1 mph E30.7 kmh E 23.7 mph38.1 kmh 29.77 in1008.1 mb 0.00 in0.0 mm 0.00 in0.0 mm 0.00 in0.0 mm
08:40 PM 31.6°F-0.2°C 17.6°F-8.0°C 59% 20.6 mph E33.2 kmh E 29.5 mph47.5 kmh 29.77 in1008.1 mb 0.00 in0.0 mm 0.00 in0.0 mm 0.00 in0.0 mm
08:45 PM 31.8°F-0.1°C 17.6°F-8.0°C 59% 24.8 mph E39.9 kmh E 31.1 mph50.1 kmh 29.74 in1007.1 mb 0.00 in0.0 mm 0.00 in0.0 mm 0.00 in0.0 mm
08:50 PM 31.8°F-0.1°C 17.6°F-8.0°C 59% 23.0 mph E37.0 kmh E 31.1 mph50.1 kmh 29.74 in1007.1 mb 0.00 in0.0 mm 0.00 in0.0 mm 0.00 in0.0 mm
08:55 PM 31.6°F-0.2°C 17.6°F-8.0°C 58% 18.9 mph E30.4 kmh E 27.3 mph43.9 kmh 29.74 in1007.1 mb 0.00 in0.0 mm 0.00 in0.0 mm 0.00 in0.0 mm
09:00 PM 31.8°F-0.1°C 17.6°F-8.0°C 58% 17.6 mph E28.3 kmh E 25.9 mph41.7 kmh 29.77 in1008.1 mb 0.00 in0.0 mm 0.00 in0.0 mm 0.00 in0.0 mm
09:05 PM 31.8°F-0.1°C 17.6°F-8.0°C 58% 19.4 mph E31.2 kmh E 24.4 mph39.3 kmh 29.77 in1008.1 mb 0.00 in0.0 mm 0.00 in0.0 mm 0.00 in0.0 mm
09:10 PM 31.6°F-0.2°C 17.6°F-8.0°C 58% 18.7 mph E30.1 kmh E 24.4 mph39.3 kmh 29.77 in1008.1 mb 0.00 in0.0 mm 0.00 in0.0 mm 0.00 in0.0 mm
09:15 PM 31.8°F-0.1°C 17.6°F-8.0°C 58% 18.9 mph E30.4 kmh E 26.6 mph42.8 kmh 29.77 in1008.1 mb 0.00 in0.0 mm 0.00 in0.0 mm 0.00 in0.0 mm
09:20 PM 31.8°F-0.1°C 17.6°F-8.0°C 59% 18.7 mph ESE30.1 kmh ESE 26.6 mph42.8 kmh 29.77 in1008.1 mb 0.00 in0.0 mm 0.00 in0.0 mm 0.00 in0.0 mm
09:25 PM 31.8°F-0.1°C 17.6°F-8.0°C 59% 17.2 mph E27.7 kmh E 26.4 mph42.5 kmh 29.77 in1008.1 mb 0.00 in0.0 mm 0.00 in0.0 mm 0.00 in0.0 mm
09:30 PM 31.8°F-0.1°C 17.6°F-8.0°C 59% 18.3 mph E29.5 kmh E 29.1 mph46.8 kmh 29.74 in1007.1 mb 0.00 in0.0 mm 0.00 in0.0 mm 0.00 in0.0 mm
09:35 PM 31.8°F-0.1°C 17.6°F-8.0°C 59% 18.4 mph E29.6 kmh E 29.1 mph46.8 kmh 29.74 in1007.1 mb 0.00 in0.0 mm 0.00 in0.0 mm 0.00 in0.0 mm
09:40 PM 31.8°F-0.1°C 17.6°F-8.0°C 59% 18.4 mph E29.6 kmh E 23.3 mph37.5 kmh 29.74 in1007.1 mb 0.00 in0.0 mm 0.00 in0.0 mm 0.00 in0.0 mm
09:45 PM 32.0°F0.0°C 17.6°F-8.0°C 59% 18.0 mph E29.0 kmh E 24.2 mph38.9 kmh 29.74 in1007.1 mb 0.00 in0.0 mm 0.00 in0.0 mm 0.00 in0.0 mm
09:50 PM 31.8°F-0.1°C 17.6°F-8.0°C 60% 17.9 mph E28.8 kmh E 24.2 mph38.9 kmh 29.74 in1007.1 mb 0.00 in0.0 mm 0.00 in0.0 mm 0.00 in0.0 mm
09:55 PM 31.8°F-0.1°C 17.6°F-8.0°C 60% 15.5 mph E24.9 kmh E 23.3 mph37.5 kmh 29.74 in1007.1 mb 0.00 in0.0 mm 0.00 in0.0 mm 0.00 in0.0 mm
10:00 PM 31.8°F-0.1°C 17.6°F-8.0°C 60% 14.4 mph E23.2 kmh E 17.4 mph28.0 kmh 29.74 in1007.1 mb 0.00 in0.0 mm 0.00 in0.0 mm 0.00 in0.0 mm
10:05 PM 31.8°F-0.1°C 17.6°F-8.0°C 60% 16.0 mph E25.7 kmh E 23.3 mph37.5 kmh 29.74 in1007.1 mb 0.00 in0.0 mm 0.00 in0.0 mm 0.00 in0.0 mm
10:10 PM 32.0°F0.0°C 19.4°F-7.0°C 60% 17.0 mph E27.4 kmh E 25.3 mph40.7 kmh 29.74 in1007.1 mb 0.00 in0.0 mm 0.00 in0.0 mm 0.00 in0.0 mm
10:15 PM 32.0°F0.0°C 19.4°F-7.0°C 60% 18.7 mph E30.1 kmh E 25.3 mph40.7 kmh 29.74 in1007.1 mb 0.00 in0.0 mm 0.00 in0.0 mm 0.00 in0.0 mm
10:20 PM 32.0°F0.0°C 19.4°F-7.0°C 60% 18.9 mph E30.4 kmh E 25.7 mph41.4 kmh 29.74 in1007.1 mb 0.00 in0.0 mm 0.00 in0.0 mm 0.00 in0.0 mm
10:25 PM 32.0°F0.0°C 19.4°F-7.0°C 61% 16.0 mph E25.7 kmh E 25.7 mph41.4 kmh 29.74 in1007.1 mb 0.00 in0.0 mm 0.00 in0.0 mm 0.00 in0.0 mm
10:30 PM 32.0°F0.0°C 19.4°F-7.0°C 61% 15.5 mph E24.9 kmh E 19.7 mph31.7 kmh 29.74 in1007.1 mb 0.00 in0.0 mm 0.00 in0.0 mm 0.00 in0.0 mm
10:35 PM 32.0°F0.0°C 19.4°F-7.0°C 60% 14.9 mph E24.0 kmh E 19.7 mph31.7 kmh 29.74 in1007.1 mb 0.00 in0.0 mm 0.00 in0.0 mm 0.00 in0.0 mm
10:40 PM 32.0°F0.0°C 19.4°F-7.0°C 60% 15.1 mph E24.3 kmh E 22.8 mph36.7 kmh 29.74 in1007.1 mb 0.00 in0.0 mm 0.00 in0.0 mm 0.00 in0.0 mm
10:45 PM 32.0°F0.0°C 19.4°F-7.0°C 60% 18.1 mph ESE29.1 kmh ESE 25.1 mph40.4 kmh 29.74 in1007.1 mb 0.00 in0.0 mm 0.00 in0.0 mm 0.00 in0.0 mm
10:50 PM 32.0°F0.0°C 19.4°F-7.0°C 60% 16.6 mph E26.7 kmh E 25.1 mph40.4 kmh 29.74 in1007.1 mb 0.00 in0.0 mm 0.00 in0.0 mm 0.00 in0.0 mm
10:55 PM 32.0°F0.0°C 19.4°F-7.0°C 60% 16.8 mph ENE27.0 kmh ENE 24.2 mph38.9 kmh 29.74 in1007.1 mb 0.00 in0.0 mm 0.00 in0.0 mm 0.00 in0.0 mm
11:00 PM 32.0°F0.0°C 19.4°F-7.0°C 60% 17.4 mph E28.0 kmh E 24.2 mph38.9 kmh 29.74 in1007.1 mb 0.00 in0.0 mm 0.00 in0.0 mm 0.00 in0.0 mm
11:05 PM 32.0°F0.0°C 19.4°F-7.0°C 60% 14.9 mph E24.0 kmh E 21.9 mph35.2 kmh 29.74 in1007.1 mb 0.00 in0.0 mm 0.00 in0.0 mm 0.00 in0.0 mm
11:10 PM 32.0°F0.0°C 19.4°F-7.0°C 60% 18.0 mph ENE29.0 kmh ENE 27.5 mph44.3 kmh 29.74 in1007.1 mb 0.00 in0.0 mm 0.00 in0.0 mm 0.00 in0.0 mm
11:15 PM 32.0°F0.0°C 19.4°F-7.0°C 60% 15.4 mph E24.8 kmh E 27.5 mph44.3 kmh 29.74 in1007.1 mb 0.00 in0.0 mm 0.00 in0.0 mm 0.00 in0.0 mm
11:20 PM 32.0°F0.0°C 19.4°F-7.0°C 61% 13.7 mph E22.0 kmh E 28.9 mph46.5 kmh 29.74 in1007.1 mb 0.00 in0.0 mm 0.00 in0.0 mm 0.00 in0.0 mm
11:25 PM 32.0°F0.0°C 19.4°F-7.0°C 60% 16.8 mph E27.0 kmh E 28.9 mph46.5 kmh 29.74 in1007.1 mb 0.00 in0.0 mm 0.00 in0.0 mm 0.00 in0.0 mm
11:30 PM 32.0°F0.0°C 19.4°F-7.0°C 61% 17.0 mph E27.4 kmh E 22.1 mph35.6 kmh 29.74 in1007.1 mb 0.00 in0.0 mm 0.00 in0.0 mm 0.00 in0.0 mm
11:35 PM 32.0°F0.0°C 19.4°F-7.0°C 61% 16.7 mph E26.9 kmh E 24.4 mph39.3 kmh 29.74 in1007.1 mb 0.00 in0.0 mm 0.00 in0.0 mm 0.00 in0.0 mm
11:40 PM 32.0°F0.0°C 19.4°F-7.0°C 61% 17.9 mph E28.8 kmh E 31.3 mph50.4 kmh 29.74 in1007.1 mb 0.00 in0.0 mm 0.00 in0.0 mm 0.00 in0.0 mm
11:45 PM 32.0°F0.0°C 19.4°F-7.0°C 61% 16.2 mph E26.1 kmh E 31.3 mph50.4 kmh 29.74 in1007.1 mb 0.00 in0.0 mm 0.00 in0.0 mm 0.00 in0.0 mm
11:50 PM 32.0°F0.0°C 19.4°F-7.0°C 61% 15.5 mph E24.9 kmh E 20.1 mph32.3 kmh 29.74 in1007.1 mb 0.00 in0.0 mm 0.00 in0.0 mm 0.00 in0.0 mm
11:55 PM 32.2°F0.1°C 19.4°F-7.0°C 61% 18.3 mph E29.5 kmh E 28.6 mph46.0 kmh 29.74 in1007.1 mb 0.00 in0.0 mm 0.00 in0.0 mm 0.00 in0.0 mm